Time,TemperatureF,DewpointF,PressureIn,WindDirection,WindDirectionDegrees,WindSpeedMPH,WindSpeedGustMPH,Humidity,HourlyPrecipIn,Conditions,Clouds,dailyrainin,SoftwareType,DateUTC
2013-02-11 00:05:00,38.3,23.5,29.99,SW,215,11.0,16.0,55,0.00,,,0.08,Wunderground v.1.15,2013-02-11 05:05:00,
2013-02-11 00:10:00,38.5,23.7,29.99,SW,214,13.0,13.0,55,0.00,,,0.08,Wunderground v.1.15,2013-02-11 05:10:00,
2013-02-11 00:15:00,38.6,24.2,29.99,SSW,207,13.0,13.0,56,0.00,,,0.08,Wunderground v.1.15,2013-02-11 05:15:00,
2013-02-11 00:20:00,38.7,24.3,29.98,SSW,212,12.0,12.0,56,0.00,,,0.08,Wunderground v.1.15,2013-02-11 05:20:00,
2013-02-11 00:29:00,38.7,23.9,29.98,SSW,198,12.0,12.0,55,0.00,,,0.08,Wunderground v.1.15,2013-02-11 05:29:00,
2013-02-11 00:34:00,38.5,24.6,29.97,SSW,207,9.0,12.0,57,0.00,,,0.08,Wunderground v.1.15,2013-02-11 05:34:00,
2013-02-11 00:40:00,38.2,25.1,29.97,SW,222,7.0,20.0,59,0.00,,,0.08,Wunderground v.1.15,2013-02-11 05:40:00,
2013-02-11 00:44:00,38.2,24.7,29.97,SW,218,8.0,20.0,58,0.00,,,0.08,Wunderground v.1.15,2013-02-11 05:44:00,
2013-02-11 00:50:00,38.1,23.8,29.97,SSW,195,11.0,11.0,56,0.00,,,0.08,Wunderground v.1.15,2013-02-11 05:50:00,
2013-02-11 00:55:00,38.2,23.9,29.97,SW,219,12.0,13.0,56,0.00,,,0.08,Wunderground v.1.15,2013-02-11 05:55:00,
2013-02-11 01:00:00,38.3,23.5,29.97,SW,225,11.0,11.0,55,0.00,,,0.08,Wunderground v.1.15,2013-02-11 06:00:00,
2013-02-11 01:09:00,38.2,23.0,29.96,SW,236,8.0,8.0,54,0.00,,,0.08,Wunderground v.1.15,2013-02-11 06:09:00,
2013-02-11 01:15:00,38.0,23.3,29.95,South,190,8.0,8.0,55,0.00,,,0.08,Wunderground v.1.15,2013-02-11 06:15:00,
2013-02-11 01:20:00,37.7,23.4,29.95,SSW,211,6.0,6.0,56,0.00,,,0.08,Wunderground v.1.15,2013-02-11 06:20:00,
2013-02-11 01:25:00,37.5,23.2,29.93,SSE,168,4.0,6.0,56,0.00,,,0.08,Wunderground v.1.15,2013-02-11 06:25:00,
2013-02-11 01:30:00,37.3,23.4,29.93,SW,215,3.0,3.0,57,0.00,,,0.08,Wunderground v.1.15,2013-02-11 06:30:00,
2013-02-11 01:39:00,37.4,23.1,29.93,ESE,113,5.0,5.0,56,0.00,,,0.00,Wunderground v.1.15,2013-02-11 06:39:00,
2013-02-11 01:44:00,37.4,23.5,29.92,South,178,5.0,5.0,57,0.00,,,0.00,Wunderground v.1.15,2013-02-11 06:44:00,
2013-02-11 01:49:00,37.5,23.6,29.92,South,190,6.0,16.0,57,0.00,,,0.00,Wunderground v.1.15,2013-02-11 06:49:00,
2013-02-11 01:54:00,37.7,23.4,29.92,SE,139,7.0,16.0,56,0.00,,,0.00,Wunderground v.1.15,2013-02-11 06:54:00,
2013-02-11 02:00:00,37.7,23.8,29.92,South,188,6.0,7.0,57,0.00,,,0.00,Wunderground v.1.15,2013-02-11 07:00:00,
2013-02-11 02:05:00,37.6,23.7,29.91,SSW,207,5.0,7.0,57,0.00,,,0.00,Wunderground v.1.15,2013-02-11 07:05:00,
2013-02-11 02:10:00,37.6,24.1,29.90,SW,223,6.0,7.0,58,0.00,,,0.00,Wunderground v.1.15,2013-02-11 07:10:00,
2013-02-11 02:19:00,37.8,23.9,29.90,SSW,202,7.0,17.0,57,0.00,,,0.00,Wunderground v.1.15,2013-02-11 07:19:00,
2013-02-11 02:24:00,37.9,24.0,29.91,SW,215,9.0,17.0,57,0.00,,,0.00,Wunderground v.1.15,2013-02-11 07:24:00,
2013-02-11 02:29:00,38.0,24.5,29.90,SW,234,10.0,12.0,58,0.00,,,0.00,Wunderground v.1.15,2013-02-11 07:29:00,
2013-02-11 02:34:00,38.0,24.5,29.90,SW,220,8.0,12.0,58,0.00,,,0.00,Wunderground v.1.15,2013-02-11 07:34:00,
2013-02-11 02:40:00,37.9,24.4,29.90,WSW,258,7.0,10.0,58,0.00,,,0.00,Wunderground v.1.15,2013-02-11 07:40:00,
2013-02-11 02:45:00,38.0,24.9,29.90,SSW,203,7.0,10.0,59,0.00,,,0.00,Wunderground v.1.15,2013-02-11 07:45:00,
2013-02-11 02:50:00,38.0,25.3,29.89,SSW,211,7.0,7.0,60,0.00,,,0.00,Wunderground v.1.15,2013-02-11 07:50:00,
2013-02-11 02:59:00,37.9,26.4,29.88,SSW,208,9.0,9.0,63,0.00,,,0.00,Wunderground v.1.15,2013-02-11 07:59:00,
2013-02-11 03:04:00,37.7,25.8,29.88,South,188,9.0,9.0,62,0.00,,,0.00,Wunderground v.1.15,2013-02-11 08:04:00,
2013-02-11 03:09:00,37.7,26.2,29.88,SSW,204,9.0,9.0,63,0.00,,,0.00,Wunderground v.1.15,2013-02-11 08:09:00,
2013-02-11 03:15:00,37.7,25.8,29.88,ESE,121,9.0,9.0,62,0.00,,,0.00,Wunderground v.1.15,2013-02-11 08:15:00,
2013-02-11 03:20:00,37.6,25.7,29.88,SSW,211,8.0,9.0,62,0.00,,,0.00,Wunderground v.1.15,2013-02-11 08:20:00,
2013-02-11 03:29:00,37.6,25.7,29.87,SW,227,7.0,7.0,62,0.00,,,0.00,Wunderground v.1.15,2013-02-11 08:29:00,
2013-02-11 03:34:00,37.6,25.7,29.86,South,170,5.0,7.0,62,0.00,,,0.00,Wunderground v.1.15,2013-02-11 08:34:00,
2013-02-11 03:39:00,37.6,25.4,29.86,SSW,202,5.0,5.0,61,0.00,,,0.00,Wunderground v.1.15,2013-02-11 08:39:00,
2013-02-11 03:44:00,37.7,25.1,29.86,SSE,159,6.0,6.0,60,0.00,,,0.00,Wunderground v.1.15,2013-02-11 08:44:00,
2013-02-11 03:50:00,37.7,25.5,29.85,SSE,147,5.0,5.0,61,0.00,,,0.00,Wunderground v.1.15,2013-02-11 08:50:00,
2013-02-11 03:55:00,37.5,25.7,29.85,South,187,4.0,5.0,62,0.00,,,0.00,Wunderground v.1.15,2013-02-11 08:55:00,
2013-02-11 04:00:00,37.4,25.2,29.84,SSW,203,4.0,4.0,61,0.00,,,0.00,Wunderground v.1.15,2013-02-11 09:00:00,
2013-02-11 04:09:00,37.6,25.0,29.84,SW,215,5.0,5.0,60,0.00,,,0.00,Wunderground v.1.15,2013-02-11 09:09:00,
2013-02-11 04:14:00,37.9,24.8,29.84,SSW,208,6.0,7.0,59,0.00,,,0.00,Wunderground v.1.15,2013-02-11 09:14:00,
2013-02-11 04:19:00,37.9,25.2,29.83,SW,217,5.0,6.0,60,0.00,,,0.00,Wunderground v.1.15,2013-02-11 09:19:00,
2013-02-11 04:24:00,37.9,25.2,29.83,SSW,203,4.0,6.0,60,0.00,,,0.00,Wunderground v.1.15,2013-02-11 09:24:00,
2013-02-11 04:30:00,38.2,24.7,29.83,SW,223,5.0,7.0,58,0.00,,,0.00,Wunderground v.1.15,2013-02-11 09:30:00,
2013-02-11 04:35:00,38.3,25.2,29.83,SSW,213,5.0,7.0,59,0.00,,,0.00,Wunderground v.1.15,2013-02-11 09:35:00,
2013-02-11 04:40:00,38.3,25.6,29.83,SSW,197,6.0,11.0,60,0.00,,,0.00,Wunderground v.1.15,2013-02-11 09:40:00,
2013-02-11 04:49:00,38.3,26.8,29.82,SSW,207,7.0,17.0,63,0.00,,,0.00,Wunderground v.1.15,2013-02-11 09:49:00,
2013-02-11 04:54:00,38.3,27.2,29.81,SW,223,9.0,17.0,64,0.00,,,0.00,Wunderground v.1.15,2013-02-11 09:54:00,
2013-02-11 04:59:00,38.3,27.6,29.81,SW,215,10.0,10.0,65,0.00,,,0.00,Wunderground v.1.15,2013-02-11 09:59:00,
2013-02-11 05:05:00,38.2,27.8,29.80,SSW,202,9.0,13.0,66,0.00,,,0.00,Wunderground v.1.15,2013-02-11 10:05:00,
2013-02-11 05:10:00,38.1,28.1,29.80,SSW,200,10.0,10.0,67,0.00,,,0.00,Wunderground v.1.15,2013-02-11 10:10:00,
2013-02-11 05:15:00,38.0,28.4,29.80,SSW,206,9.0,10.0,68,0.00,,,0.00,Wunderground v.1.15,2013-02-11 10:15:00,
2013-02-11 05:24:00,38.1,29.2,29.80,SSW,195,7.0,15.0,70,0.00,,,0.00,Wunderground v.1.15,2013-02-11 10:24:00,
2013-02-11 05:29:00,38.0,29.4,29.80,South,173,9.0,9.0,71,0.00,,,0.00,Wunderground v.1.15,2013-02-11 10:29:00,
2013-02-11 05:34:00,37.9,30.0,29.80,SW,222,8.0,9.0,73,0.00,,,0.00,Wunderground v.1.15,2013-02-11 10:34:00,
2013-02-11 05:39:00,37.7,30.2,29.80,SSW,213,6.0,6.0,74,0.00,,,0.00,Wunderground v.1.15,2013-02-11 10:39:00,
2013-02-11 05:45:00,37.5,30.3,29.79,SW,228,7.0,7.0,75,0.00,,,0.00,Wunderground v.1.15,2013-02-11 10:45:00,
2013-02-11 05:50:00,37.4,31.2,29.79,SSW,202,7.0,7.0,78,0.00,,,0.00,Wunderground v.1.15,2013-02-11 10:50:00,
2013-02-11 05:55:00,36.9,31.9,29.79,SSW,196,7.0,8.0,82,0.00,,,0.01,Wunderground v.1.15,2013-02-11 10:55:00,
2013-02-11 06:00:00,36.3,32.2,29.79,SSW,203,8.0,8.0,85,0.17,,,0.02,Wunderground v.1.15,2013-02-11 11:00:00,
2013-02-11 06:09:00,36.0,32.5,29.79,SSW,209,8.0,8.0,87,0.05,,,0.02,Wunderground v.1.15,2013-02-11 11:09:00,
2013-02-11 06:14:00,36.2,32.7,29.78,SSW,213,8.0,8.0,87,0.04,,,0.02,Wunderground v.1.15,2013-02-11 11:14:00,
2013-02-11 06:19:00,36.2,32.7,29.78,SSW,200,9.0,9.0,87,0.00,,,0.02,Wunderground v.1.15,2013-02-11 11:19:00,
2013-02-11 06:25:00,36.2,33.0,29.78,SW,219,8.0,9.0,88,0.00,,,0.02,Wunderground v.1.15,2013-02-11 11:25:00,
2013-02-11 06:30:00,36.2,33.0,29.77,SW,215,8.0,8.0,88,0.00,,,0.02,Wunderground v.1.15,2013-02-11 11:30:00,
2013-02-11 06:35:00,36.1,32.9,29.78,SSW,194,8.0,8.0,88,0.00,,,0.02,Wunderground v.1.15,2013-02-11 11:35:00,
2013-02-11 06:40:00,36.2,33.0,29.78,SSW,212,8.0,8.0,88,0.00,,,0.02,Wunderground v.1.15,2013-02-11 11:40:00,
2013-02-11 06:49:00,36.3,33.1,29.76,SSW,198,9.0,12.0,88,0.00,,,0.02,Wunderground v.1.15,2013-02-11 11:49:00,
2013-02-11 06:54:00,36.4,33.2,29.76,SSW,201,9.0,15.0,88,0.00,,,0.02,Wunderground v.1.15,2013-02-11 11:54:00,
2013-02-11 07:00:00,36.4,33.2,29.76,SW,224,9.0,13.0,88,0.00,,,0.02,Wunderground v.1.15,2013-02-11 12:00:00,
2013-02-11 07:05:00,36.5,33.3,29.76,SW,225,11.0,13.0,88,0.00,,,0.02,Wunderground v.1.15,2013-02-11 12:05:00,
2013-02-11 07:10:00,36.7,33.5,29.76,SW,222,8.0,8.0,88,0.00,,,0.02,Wunderground v.1.15,2013-02-11 12:10:00,
2013-02-11 07:19:00,37.0,33.8,29.76,SSW,202,8.0,14.0,88,0.00,,,0.02,Wunderground v.1.15,2013-02-11 12:19:00,
2013-02-11 07:24:00,37.2,34.0,29.76,SSW,195,9.0,14.0,88,0.00,,,0.02,Wunderground v.1.15,2013-02-11 12:24:00,
2013-02-11 07:30:00,37.4,34.2,29.76,SW,219,10.0,10.0,88,0.00,,,0.02,Wunderground v.1.15,2013-02-11 12:30:00,
2013-02-11 07:35:00,37.5,34.3,29.76,SW,228,9.0,10.0,88,0.00,,,0.02,Wunderground v.1.15,2013-02-11 12:35:00,
2013-02-11 07:44:00,37.8,34.6,29.75,SW,222,9.0,10.0,88,0.00,,,0.02,Wunderground v.1.15,2013-02-11 12:44:00,
2013-02-11 07:49:00,38.0,34.8,29.75,SSW,201,9.0,9.0,88,0.00,,,0.02,Wunderground v.1.15,2013-02-11 12:49:00,
2013-02-11 07:54:00,38.2,35.0,29.75,SSW,203,9.0,9.0,88,0.00,,,0.02,Wunderground v.1.15,2013-02-11 12:54:00,
2013-02-11 08:00:00,38.4,35.4,29.75,SSW,205,8.0,10.0,89,0.00,,,0.02,Wunderground v.1.15,2013-02-11 13:00:00,
2013-02-11 08:05:00,38.6,35.4,29.75,SSW,211,7.0,10.0,88,0.00,,,0.02,Wunderground v.1.15,2013-02-11 13:05:00,
2013-02-11 08:10:00,38.8,35.6,29.75,SW,218,7.0,10.0,88,0.00,,,0.02,Wunderground v.1.15,2013-02-11 13:10:00,
2013-02-11 08:19:00,39.2,35.9,29.74,SW,219,8.0,8.0,88,0.00,,,0.02,Wunderground v.1.15,2013-02-11 13:19:00,
2013-02-11 08:24:00,39.3,36.0,29.74,SSW,210,7.0,10.0,88,0.00,,,0.02,Wunderground v.1.15,2013-02-11 13:24:00,
2013-02-11 08:29:00,39.4,36.1,29.73,SW,214,7.0,9.0,88,0.00,,,0.02,Wunderground v.1.15,2013-02-11 13:29:00,
2013-02-11 08:35:00,39.5,36.2,29.73,SSE,163,7.0,9.0,88,0.00,,,0.02,Wunderground v.1.15,2013-02-11 13:35:00,
2013-02-11 08:40:00,39.7,36.4,29.73,SSW,207,7.0,7.0,88,0.00,,,0.02,Wunderground v.1.15,2013-02-11 13:40:00,
2013-02-11 08:45:00,40.0,36.7,29.73,SW,217,6.0,11.0,88,0.00,,,0.02,Wunderground v.1.15,2013-02-11 13:45:00,
2013-02-11 08:54:00,40.4,37.1,29.73,SSW,209,7.0,7.0,88,0.00,,,0.02,Wunderground v.1.15,2013-02-11 13:54:00,
2013-02-11 08:59:00,40.9,37.3,29.73,SSW,205,8.0,8.0,87,0.00,,,0.02,Wunderground v.1.15,2013-02-11 13:59:00,
2013-02-11 09:04:00,41.3,37.7,29.72,SSW,208,7.0,8.0,87,0.00,,,0.02,Wunderground v.1.15,2013-02-11 14:04:00,
2013-02-11 09:09:00,41.5,37.9,29.72,SW,215,6.0,8.0,87,0.00,,,0.02,Wunderground v.1.15,2013-02-11 14:09:00,
2013-02-11 09:15:00,41.7,37.8,29.71,SW,223,6.0,8.0,86,0.00,,,0.02,Wunderground v.1.15,2013-02-11 14:15:00,
2013-02-11 09:20:00,42.2,38.6,29.71,SW,218,8.0,8.0,87,0.00,,,0.02,Wunderground v.1.15,2013-02-11 14:20:00,
2013-02-11 09:25:00,42.7,38.8,29.70,SSW,199,9.0,9.0,86,0.00,,,0.02,Wunderground v.1.15,2013-02-11 14:25:00,
2013-02-11 09:34:00,43.0,39.1,29.70,SW,214,9.0,10.0,86,0.00,,,0.02,Wunderground v.1.15,2013-02-11 14:34:00,
2013-02-11 09:39:00,43.3,39.1,29.69,WSW,242,9.0,9.0,85,0.00,,,0.02,Wunderground v.1.15,2013-02-11 14:39:00,
2013-02-11 09:44:00,43.6,39.1,29.69,SW,229,9.0,9.0,84,0.00,,,0.02,Wunderground v.1.15,2013-02-11 14:44:00,
2013-02-11 09:50:00,43.7,39.2,29.69,South,183,9.0,9.0,84,0.00,,,0.02,Wunderground v.1.15,2013-02-11 14:50:00,
2013-02-11 09:55:00,43.8,39.3,29.69,SSW,210,8.0,9.0,84,0.00,,,0.02,Wunderground v.1.15,2013-02-11 14:55:00,
2013-02-11 10:00:00,44.2,39.7,29.68,SSW,201,9.0,9.0,84,0.00,,,0.02,Wunderground v.1.15,2013-02-11 15:00:00,
2013-02-11 10:05:00,44.5,40.0,29.68,SSW,213,9.0,9.0,84,0.00,,,0.02,Wunderground v.1.15,2013-02-11 15:05:00,
2013-02-11 10:14:00,44.3,39.8,29.68,SSW,202,9.0,10.0,84,0.00,,,0.02,Wunderground v.1.15,2013-02-11 15:14:00,
2013-02-11 10:19:00,44.3,39.8,29.68,SW,227,8.0,8.0,84,0.00,,,0.02,Wunderground v.1.15,2013-02-11 15:19:00,
2013-02-11 10:25:00,44.3,39.8,29.68,South,183,8.0,9.0,84,0.00,,,0.02,Wunderground v.1.15,2013-02-11 15:25:00,
2013-02-11 10:30:00,44.4,39.9,29.68,South,187,7.0,7.0,84,0.00,,,0.02,Wunderground v.1.15,2013-02-11 15:30:00,
2013-02-11 10:35:00,44.4,39.9,29.68,SW,219,6.0,7.0,84,0.00,,,0.02,Wunderground v.1.15,2013-02-11 15:35:00,
2013-02-11 10:44:00,44.6,40.1,29.68,SSW,210,7.0,11.0,84,0.00,,,0.02,Wunderground v.1.15,2013-02-11 15:44:00,
2013-02-11 10:49:00,44.9,40.0,29.67,SW,218,7.0,7.0,83,0.00,,,0.02,Wunderground v.1.15,2013-02-11 15:49:00,
2013-02-11 10:55:00,45.2,40.3,29.67,SW,236,6.0,7.0,83,0.00,,,0.02,Wunderground v.1.15,2013-02-11 15:55:00,
2013-02-11 11:00:00,45.5,40.3,29.67,ESE,121,5.0,8.0,82,0.00,,,0.02,Wunderground v.1.15,2013-02-11 16:00:00,
2013-02-11 11:05:00,45.1,39.9,29.68,WSW,252,5.0,8.0,82,0.00,,,0.02,Wunderground v.1.15,2013-02-11 16:05:00,
2013-02-11 11:14:00,45.4,40.5,29.67,WSW,239,5.0,8.0,83,0.00,,,0.02,Wunderground v.1.15,2013-02-11 16:14:00,
2013-02-11 11:19:00,46.0,40.8,29.66,SW,231,6.0,7.0,82,0.00,,,0.02,Wunderground v.1.15,2013-02-11 16:19:00,
2013-02-11 11:24:00,46.4,40.9,29.65,SSW,207,6.0,7.0,81,0.00,,,0.02,Wunderground v.1.15,2013-02-11 16:24:00,
2013-02-11 11:29:00,46.1,40.6,29.65,SW,219,5.0,5.0,81,0.00,,,0.02,Wunderground v.1.15,2013-02-11 16:29:00,
2013-02-11 11:35:00,45.5,40.3,29.64,SSW,212,5.0,6.0,82,0.00,,,0.02,Wunderground v.1.15,2013-02-11 16:35:00,
2013-02-11 11:40:00,45.3,40.4,29.64,SW,219,6.0,8.0,83,0.00,,,0.02,Wunderground v.1.15,2013-02-11 16:40:00,
2013-02-11 11:50:00,45.6,40.7,29.63,South,177,6.0,6.0,83,0.00,,,0.02,Wunderground v.1.15,2013-02-11 16:50:00,
2013-02-11 11:59:00,46.4,40.9,29.62,South,180,6.0,6.0,81,0.00,,,0.02,Wunderground v.1.15,2013-02-11 16:59:00,
2013-02-11 12:05:00,47.0,41.1,29.62,South,186,7.0,7.0,80,0.00,,,0.02,Wunderground v.1.15,2013-02-11 17:05:00,
2013-02-11 12:10:00,47.3,41.1,29.61,SW,227,7.0,9.0,79,0.00,,,0.02,Wunderground v.1.15,2013-02-11 17:10:00,
2013-02-11 12:15:00,47.6,41.7,29.61,WSW,247,7.0,9.0,80,0.00,,,0.02,Wunderground v.1.15,2013-02-11 17:15:00,
2013-02-11 12:24:00,48.3,42.1,29.60,SW,229,6.0,6.0,79,0.00,,,0.02,Wunderground v.1.15,2013-02-11 17:24:00,
2013-02-11 12:29:00,48.4,41.9,29.59,SW,231,7.0,9.0,78,0.00,,,0.02,Wunderground v.1.15,2013-02-11 17:29:00,
2013-02-11 12:34:00,48.3,41.8,29.59,SSW,200,8.0,9.0,78,0.00,,,0.02,Wunderground v.1.15,2013-02-11 17:34:00,
2013-02-11 12:39:00,48.8,41.9,29.58,SSW,209,9.0,9.0,77,0.00,,,0.02,Wunderground v.1.15,2013-02-11 17:39:00,
2013-02-11 12:45:00,49.3,42.1,29.58,SW,218,10.0,12.0,76,0.00,,,0.02,Wunderground v.1.15,2013-02-11 17:45:00,
2013-02-11 12:50:00,49.4,41.8,29.57,SSW,198,10.0,11.0,75,0.00,,,0.02,Wunderground v.1.15,2013-02-11 17:50:00,
2013-02-11 12:55:00,49.7,42.1,29.57,SW,223,9.0,11.0,75,0.00,,,0.02,Wunderground v.1.15,2013-02-11 17:55:00,
2013-02-11 13:04:00,50.3,41.6,29.56,SW,236,10.0,15.0,72,0.00,,,0.02,Wunderground v.1.15,2013-02-11 18:04:00,
2013-02-11 13:09:00,50.2,41.2,29.56,SSW,199,10.0,12.0,71,0.00,,,0.02,Wunderground v.1.15,2013-02-11 18:09:00,
2013-02-11 13:14:00,50.2,41.5,29.56,SW,231,9.0,12.0,72,0.00,,,0.02,Wunderground v.1.15,2013-02-11 18:14:00,
2013-02-11 13:20:00,50.2,41.5,29.56,West,274,9.0,9.0,72,0.00,,,0.02,Wunderground v.1.15,2013-02-11 18:20:00,
2013-02-11 13:25:00,49.6,41.3,29.58,WNW,283,8.0,24.0,73,0.00,,,0.03,Wunderground v.1.15,2013-02-11 18:25:00,
2013-02-11 13:35:00,41.2,37.3,29.60,SW,232,18.0,20.0,86,0.00,,,0.03,Wunderground v.1.15,2013-02-11 18:35:00,
2013-02-11 13:44:00,40.5,36.3,29.61,WSW,245,13.0,16.0,85,0.00,,,0.03,Wunderground v.1.15,2013-02-11 18:44:00,
2013-02-11 13:49:00,40.5,36.0,29.62,SSW,211,13.0,13.0,84,0.00,,,0.03,Wunderground v.1.15,2013-02-11 18:49:00,
2013-02-11 13:55:00,40.3,35.2,29.62,West,275,12.0,13.0,82,0.00,,,0.03,Wunderground v.1.15,2013-02-11 18:55:00,
2013-02-11 14:00:00,40.2,34.8,29.62,West,260,11.0,24.0,81,0.00,,,0.03,Wunderground v.1.15,2013-02-11 19:00:00,
2013-02-11 14:05:00,40.0,34.3,29.62,West,261,13.0,24.0,80,0.00,,,0.03,Wunderground v.1.15,2013-02-11 19:05:00,
2013-02-11 14:10:00,39.8,33.8,29.63,West,261,13.0,18.0,79,0.00,,,0.03,Wunderground v.1.15,2013-02-11 19:10:00,
2013-02-11 14:19:00,39.3,33.6,29.63,West,261,11.0,26.0,80,0.00,,,0.03,Wunderground v.1.15,2013-02-11 19:19:00,
2013-02-11 14:24:00,39.2,33.2,29.63,WSW,238,12.0,26.0,79,0.00,,,0.03,Wunderground v.1.15,2013-02-11 19:24:00,
2013-02-11 14:29:00,39.2,33.2,29.63,West,265,12.0,13.0,79,0.00,,,0.03,Wunderground v.1.15,2013-02-11 19:29:00,
2013-02-11 14:35:00,39.1,33.1,29.62,WSW,245,10.0,13.0,79,0.00,,,0.03,Wunderground v.1.15,2013-02-11 19:35:00,
2013-02-11 14:40:00,38.8,33.2,29.63,SSW,211,10.0,12.0,80,0.00,,,0.03,Wunderground v.1.15,2013-02-11 19:40:00,
2013-02-11 14:45:00,38.6,33.0,29.63,West,264,10.0,12.0,80,0.00,,,0.03,Wunderground v.1.15,2013-02-11 19:45:00,
2013-02-11 14:50:00,38.3,32.7,29.63,WSW,243,13.0,13.0,80,0.00,,,0.03,Wunderground v.1.15,2013-02-11 19:50:00,
2013-02-11 14:59:00,38.3,32.4,29.63,West,261,12.0,21.0,79,0.00,,,0.03,Wunderground v.1.15,2013-02-11 19:59:00,
2013-02-11 15:04:00,38.1,32.2,29.63,SW,235,14.0,22.0,79,0.00,,,0.03,Wunderground v.1.15,2013-02-11 20:04:00,
2013-02-11 15:10:00,38.1,32.2,29.63,WSW,242,15.0,29.0,79,0.00,,,0.03,Wunderground v.1.15,2013-02-11 20:10:00,
2013-02-11 15:14:00,38.1,31.8,29.63,WNW,285,16.0,29.0,78,0.00,,,0.03,Wunderground v.1.15,2013-02-11 20:14:00,
2013-02-11 15:20:00,37.9,31.3,29.62,West,262,16.0,25.0,77,0.00,,,0.03,Wunderground v.1.15,2013-02-11 20:20:00,
2013-02-11 15:25:00,37.9,31.0,29.63,West,263,17.0,25.0,76,0.00,,,0.03,Wunderground v.1.15,2013-02-11 20:25:00,
2013-02-11 15:30:00,37.5,30.6,29.62,WSW,240,17.0,17.0,76,0.00,,,0.03,Wunderground v.1.15,2013-02-11 20:30:00,
2013-02-11 15:39:00,37.1,30.6,29.63,WSW,253,16.0,23.0,77,0.00,,,0.03,Wunderground v.1.15,2013-02-11 20:39:00,
2013-02-11 15:44:00,36.7,29.5,29.63,WSW,254,17.0,23.0,75,0.00,,,0.03,Wunderground v.1.15,2013-02-11 20:44:00,
2013-02-11 15:49:00,36.6,29.4,29.64,WNW,284,19.0,19.0,75,0.00,,,0.03,Wunderground v.1.15,2013-02-11 20:49:00,
2013-02-11 15:55:00,36.5,29.3,29.64,WSW,256,18.0,19.0,75,0.00,,,0.03,Wunderground v.1.15,2013-02-11 20:55:00,
2013-02-11 16:00:00,36.4,29.2,29.64,WSW,255,16.0,19.0,75,0.00,,,0.03,Wunderground v.1.15,2013-02-11 21:00:00,
2013-02-11 16:05:00,36.1,29.3,29.64,West,273,14.0,19.0,76,0.00,,,0.03,Wunderground v.1.15,2013-02-11 21:05:00,
2013-02-11 16:14:00,35.9,29.1,29.64,WSW,239,18.0,23.0,76,0.00,,,0.03,Wunderground v.1.15,2013-02-11 21:14:00,
2013-02-11 16:20:00,35.7,29.2,29.64,SW,222,18.0,22.0,77,0.00,,,0.03,Wunderground v.1.15,2013-02-11 21:20:00,
2013-02-11 16:25:00,35.6,29.1,29.63,WSW,254,17.0,22.0,77,0.00,,,0.03,Wunderground v.1.15,2013-02-11 21:25:00,
2013-02-11 16:30:00,35.5,29.0,29.64,West,267,19.0,23.0,77,0.00,,,0.03,Wunderground v.1.15,2013-02-11 21:30:00,
2013-02-11 16:35:00,35.4,29.2,29.64,WSW,257,20.0,23.0,78,0.00,,,0.03,Wunderground v.1.15,2013-02-11 21:35:00,
2013-02-11 16:44:00,35.3,28.8,29.65,WSW,238,20.0,28.0,77,0.00,,,0.03,Wunderground v.1.15,2013-02-11 21:44:00,
2013-02-11 16:49:00,35.2,29.0,29.65,West,275,20.0,20.0,78,0.00,,,0.03,Wunderground v.1.15,2013-02-11 21:49:00,
2013-02-11 16:55:00,35.0,29.5,29.65,West,275,21.0,26.0,80,0.00,,,0.03,Wunderground v.1.15,2013-02-11 21:55:00,
2013-02-11 16:59:00,35.0,29.1,29.66,West,273,23.0,23.0,79,0.00,,,0.03,Wunderground v.1.15,2013-02-11 21:59:00,
2013-02-11 17:05:00,35.0,28.8,29.66,WSW,249,22.0,23.0,78,0.00,,,0.03,Wunderground v.1.15,2013-02-11 22:05:00,
2013-02-11 17:10:00,35.1,28.6,29.66,West,260,20.0,20.0,77,0.00,,,0.03,Wunderground v.1.15,2013-02-11 22:10:00,
2013-02-11 17:19:00,35.2,28.7,29.67,WSW,250,21.0,21.0,77,0.00,,,0.03,Wunderground v.1.15,2013-02-11 22:19:00,
2013-02-11 17:25:00,35.2,28.4,29.67,WSW,253,19.0,27.0,76,0.00,,,0.03,Wunderground v.1.15,2013-02-11 22:25:00,
2013-02-11 17:30:00,35.2,28.4,29.67,WSW,256,21.0,21.0,76,0.00,,,0.04,Wunderground v.1.15,2013-02-11 22:30:00,
2013-02-11 17:35:00,35.0,28.5,29.67,West,265,19.0,21.0,77,0.00,,,0.04,Wunderground v.1.15,2013-02-11 22:35:00,
2013-02-11 17:40:00,34.9,28.4,29.66,West,275,17.0,23.0,77,0.00,,,0.04,Wunderground v.1.15,2013-02-11 22:40:00,
2013-02-11 17:49:00,34.7,28.2,29.66,WSW,250,20.0,20.0,77,0.00,,,0.04,Wunderground v.1.15,2013-02-11 22:49:00,
2013-02-11 17:54:00,34.6,28.1,29.67,West,265,19.0,23.0,77,0.00,,,0.04,Wunderground v.1.15,2013-02-11 22:54:00,
2013-02-11 17:59:00,34.5,28.0,29.67,West,264,20.0,24.0,77,0.00,,,0.04,Wunderground v.1.15,2013-02-11 22:59:00,
2013-02-11 18:05:00,34.4,27.9,29.66,West,264,21.0,28.0,77,0.00,,,0.04,Wunderground v.1.15,2013-02-11 23:05:00,
2013-02-11 18:10:00,34.4,27.3,29.67,WSW,253,22.0,26.0,75,0.00,,,0.04,Wunderground v.1.15,2013-02-11 23:10:00,
2013-02-11 18:15:00,34.4,27.0,29.67,West,263,23.0,26.0,74,0.00,,,0.04,Wunderground v.1.15,2013-02-11 23:15:00,
2013-02-11 18:24:00,34.3,26.5,29.68,SW,229,18.0,28.0,73,0.00,,,0.04,Wunderground v.1.15,2013-02-11 23:24:00,
2013-02-11 18:29:00,34.3,26.2,29.68,West,265,21.0,24.0,72,0.00,,,0.04,Wunderground v.1.15,2013-02-11 23:29:00,
2013-02-11 18:35:00,34.3,26.5,29.68,West,263,22.0,24.0,73,0.00,,,0.04,Wunderground v.1.15,2013-02-11 23:35:00,
2013-02-11 18:40:00,34.3,26.5,29.68,WSW,250,21.0,21.0,73,0.00,,,0.04,Wunderground v.1.15,2013-02-11 23:40:00,
2013-02-11 18:50:00,34.0,26.6,29.68,West,267,20.0,22.0,74,0.00,,,0.04,Wunderground v.1.15,2013-02-11 23:50:00,
2013-02-11 18:59:00,33.6,26.5,29.67,SW,229,20.0,20.0,75,0.00,,,0.04,Wunderground v.1.15,2013-02-11 23:59:00,
2013-02-11 19:04:00,33.5,26.4,29.68,WSW,250,21.0,21.0,75,0.00,,,0.04,Wunderground v.1.15,2013-02-12 00:04:00,
2013-02-11 19:10:00,33.5,26.4,29.67,West,271,20.0,20.0,75,0.00,,,0.04,Wunderground v.1.15,2013-02-12 00:10:00,
2013-02-11 19:15:00,33.5,26.1,29.68,West,279,19.0,20.0,74,0.00,,,0.04,Wunderground v.1.15,2013-02-12 00:15:00,
2013-02-11 19:20:00,33.8,26.1,29.68,WSW,254,19.0,19.0,73,0.00,,,0.04,Wunderground v.1.15,2013-02-12 00:20:00,
2013-02-11 19:25:00,33.7,26.3,29.68,WSW,237,21.0,21.0,74,0.00,,,0.04,Wunderground v.1.15,2013-02-12 00:25:00,
2013-02-11 19:34:00,33.7,26.3,29.68,West,262,17.0,20.0,74,0.00,,,0.04,Wunderground v.1.15,2013-02-12 00:34:00,
2013-02-11 19:39:00,33.8,26.4,29.68,WNW,302,19.0,19.0,74,0.00,,,0.04,Wunderground v.1.15,2013-02-12 00:39:00,
2013-02-11 19:45:00,33.7,26.6,29.68,WSW,250,20.0,20.0,75,0.00,,,0.04,Wunderground v.1.15,2013-02-12 00:45:00,
2013-02-11 19:50:00,33.6,26.5,29.68,WSW,254,16.0,16.0,75,0.00,,,0.04,Wunderground v.1.15,2013-02-12 00:50:00,
2013-02-11 19:55:00,33.6,26.5,29.68,WSW,240,15.0,16.0,75,0.00,,,0.04,Wunderground v.1.15,2013-02-12 00:55:00,
2013-02-11 20:00:00,33.7,26.6,29.68,SW,222,17.0,17.0,75,0.00,,,0.04,Wunderground v.1.15,2013-02-12 01:00:00,
2013-02-11 20:09:00,33.8,27.0,29.68,West,268,20.0,20.0,76,0.00,,,0.04,Wunderground v.1.15,2013-02-12 01:09:00,
2013-02-11 20:14:00,33.7,26.9,29.68,West,266,19.0,21.0,76,0.00,,,0.04,Wunderground v.1.15,2013-02-12 01:14:00,
2013-02-11 20:20:00,33.7,26.9,29.68,WSW,257,18.0,21.0,76,0.00,,,0.04,Wunderground v.1.15,2013-02-12 01:20:00,
2013-02-11 20:25:00,33.7,27.3,29.68,WSW,254,19.0,21.0,77,0.00,,,0.04,Wunderground v.1.15,2013-02-12 01:25:00,
2013-02-11 20:35:00,33.6,27.2,29.68,SW,225,17.0,18.0,77,0.00,,,0.04,Wunderground v.1.15,2013-02-12 01:35:00,
2013-02-11 20:44:00,33.8,27.4,29.68,WSW,252,18.0,18.0,77,0.00,,,0.04,Wunderground v.1.15,2013-02-12 01:44:00,
2013-02-11 20:49:00,33.8,27.4,29.67,SW,221,17.0,17.0,77,0.00,,,0.04,Wunderground v.1.15,2013-02-12 01:49:00,
2013-02-11 20:55:00,33.8,27.4,29.67,SW,235,17.0,21.0,77,0.00,,,0.04,Wunderground v.1.15,2013-02-12 01:55:00,
2013-02-11 21:00:00,33.7,27.6,29.67,WSW,248,18.0,23.0,78,0.00,,,0.04,Wunderground v.1.15,2013-02-12 02:00:00,
2013-02-11 21:09:00,33.8,27.4,29.67,WSW,254,22.0,22.0,77,0.00,,,0.04,Wunderground v.1.15,2013-02-12 02:09:00,
2013-02-11 21:14:00,33.8,27.4,29.68,West,279,21.0,22.0,77,0.00,,,0.04,Wunderground v.1.15,2013-02-12 02:14:00,
2013-02-11 21:19:00,33.7,27.6,29.68,WSW,251,18.0,25.0,78,0.00,,,0.04,Wunderground v.1.15,2013-02-12 02:19:00,
2013-02-11 21:24:00,33.7,27.6,29.68,West,265,17.0,29.0,78,0.00,,,0.04,Wunderground v.1.15,2013-02-12 02:24:00,
2013-02-11 21:30:00,33.6,27.5,29.68,WSW,240,17.0,26.0,78,0.00,,,0.04,Wunderground v.1.15,2013-02-12 02:30:00,
2013-02-11 21:35:00,33.5,27.4,29.68,SW,217,17.0,26.0,78,0.00,,,0.04,Wunderground v.1.15,2013-02-12 02:35:00,
2013-02-11 21:44:00,33.6,27.5,29.68,WSW,256,17.0,19.0,78,0.00,,,0.04,Wunderground v.1.15,2013-02-12 02:44:00,
2013-02-11 21:49:00,33.7,27.6,29.68,SW,217,20.0,20.0,78,0.00,,,0.04,Wunderground v.1.15,2013-02-12 02:49:00,
2013-02-11 21:54:00,33.7,27.6,29.68,SW,225,19.0,20.0,78,0.00,,,0.04,Wunderground v.1.15,2013-02-12 02:54:00,
2013-02-11 21:59:00,33.7,27.6,29.69,SW,233,17.0,17.0,78,0.00,,,0.04,Wunderground v.1.15,2013-02-12 02:59:00,
2013-02-11 22:05:00,33.7,27.6,29.68,WSW,241,17.0,17.0,78,0.00,,,0.04,Wunderground v.1.15,2013-02-12 03:05:00,
2013-02-11 22:10:00,33.6,27.2,29.68,WSW,241,17.0,17.0,77,0.00,,,0.04,Wunderground v.1.15,2013-02-12 03:10:00,
2013-02-11 22:20:00,33.5,27.4,29.69,SW,229,16.0,16.0,78,0.00,,,0.04,Wunderground v.1.15,2013-02-12 03:20:00,
2013-02-11 22:29:00,33.4,27.3,29.69,WSW,254,13.0,13.0,78,0.00,,,0.04,Wunderground v.1.15,2013-02-12 03:29:00,
2013-02-11 22:34:00,33.4,27.6,29.69,SW,225,12.0,21.0,79,0.00,,,0.04,Wunderground v.1.15,2013-02-12 03:34:00,
2013-02-11 22:40:00,33.5,27.4,29.69,SW,236,15.0,15.0,78,0.00,,,0.04,Wunderground v.1.15,2013-02-12 03:40:00,
2013-02-11 22:45:00,33.4,27.3,29.69,SW,229,15.0,19.0,78,0.00,,,0.04,Wunderground v.1.15,2013-02-12 03:45:00,
2013-02-11 22:50:00,33.3,27.5,29.70,West,270,13.0,13.0,79,0.00,,,0.04,Wunderground v.1.15,2013-02-12 03:50:00,
2013-02-11 22:55:00,33.3,27.5,29.70,SW,224,12.0,13.0,79,0.00,,,0.04,Wunderground v.1.15,2013-02-12 03:55:00,
2013-02-11 23:04:00,33.3,27.2,29.72,SW,223,10.0,16.0,78,0.00,,,0.04,Wunderground v.1.15,2013-02-12 04:04:00,
2013-02-11 23:09:00,33.3,27.5,29.71,SSW,199,14.0,14.0,79,0.00,,,0.04,Wunderground v.1.15,2013-02-12 04:09:00,
2013-02-11 23:14:00,33.2,27.4,29.72,WSW,240,11.0,14.0,79,0.00,,,0.04,Wunderground v.1.15,2013-02-12 04:14:00,
2013-02-11 23:20:00,33.1,27.6,29.72,West,271,10.0,10.0,80,0.00,,,0.04,Wunderground v.1.15,2013-02-12 04:20:00,
2013-02-11 23:25:00,32.9,27.7,29.72,WNW,292,10.0,14.0,81,0.00,,,0.04,Wunderground v.1.15,2013-02-12 04:25:00,
2013-02-11 23:30:00,32.7,28.1,29.72,West,264,10.0,12.0,83,0.00,,,0.04,Wunderground v.1.15,2013-02-12 04:30:00,
2013-02-11 23:35:00,32.5,28.2,29.72,SW,227,10.0,12.0,84,0.00,,,0.04,Wunderground v.1.15,2013-02-12 04:35:00,
2013-02-11 23:44:00,32.3,28.3,29.73,WSW,257,8.0,13.0,85,0.00,,,0.04,Wunderground v.1.15,2013-02-12 04:44:00,
2013-02-11 23:49:00,32.1,28.4,29.73,SW,219,8.0,16.0,86,0.00,,,0.04,Wunderground v.1.15,2013-02-12 04:49:00,
2013-02-11 23:55:00,31.8,28.7,29.73,WSW,246,8.0,16.0,88,0.00,,,0.04,Wunderground v.1.15,2013-02-12 04:55:00,
2013-02-11 23:59:00,31.7,28.6,29.74,West,277,10.0,10.0,88,0.00,,,0.04,Wunderground v.1.15,2013-02-12 04:59:00,